Time;durP1;ratioP1;P1;durP2;ratioP2;P2;SDS_P1;SDS_P2;PMS_P1;PMS_P2;Temp;Humidity;BMP_temperature;BMP_pressure;BME280_temperature;BME280_humidity;BME280_pressure;Samples;Min_cycle;Max_cycle;Signal;HPM_P1;HPM_P2
2024/01/30 00:02:35;;;;;;;;;;;6.40;50.40;;;4.58;54.50;102606.59;12262136;19;19929;-85
2024/01/30 00:06:36;;;;;;;;;;;6.50;50.40;;;4.61;54.45;102616.94;12260031;19;20627;-85
2024/01/30 00:10:37;;;;;;;;;;;6.20;50.30;;;4.61;54.47;102628.13;12264189;19;19986;-86
2024/01/30 00:14:41;;;;;;;;;;;6.10;50.20;;;4.47;54.66;102614.34;12258272;19;20400;-85
2024/01/30 00:18:42;;;;;;;;;;;6.10;50.30;;;4.56;54.51;102631.59;12255285;19;19918;-85
2024/01/30 00:22:44;;;;;;;;;;;6.30;50.40;;;4.53;54.65;102636.78;12260124;19;19922;-85
2024/01/30 00:26:46;;;;;;;;;;;6.10;50.40;;;4.28;54.75;102590.19;12256395;19;19935;-85
2024/01/30 00:30:48;;;;;;;;;;;6.20;50.40;;;4.47;54.55;102619.53;12258849;19;19918;-85
2024/01/30 00:34:49;;;;;;;;;;;6.10;50.40;;;4.52;54.51;102630.75;12260164;19;19923;-85
2024/01/30 00:38:51;;;;;;;;;;;6.10;50.40;;;4.50;54.55;102626.41;12255920;19;19922;-85
2024/01/30 00:42:52;;;;;;;;;;;6.00;50.40;;;4.34;54.50;102600.53;12259498;19;19919;-85
2024/01/30 00:46:54;;;;;;;;;;;6.00;50.40;;;4.34;54.78;102600.53;12254623;19;19950;-85
2024/01/30 00:50:55;;;;;;;;;;;6.30;50.60;;;4.41;54.71;102616.94;12259172;19;20409;-85
2024/01/30 00:54:57;;;;;;;;;;;6.00;50.80;;;4.15;54.60;102578.09;12257327;19;20351;-84
2024/01/30 00:58:58;;;;;;;;;;;6.00;50.50;;;4.11;54.73;102577.25;12248552;19;19940;-85
2024/01/30 01:03:00;;;;;;;;;;;6.00;50.50;;;4.42;54.67;102634.16;12251782;19;20260;-84
2024/01/30 01:07:01;;;;;;;;;;;6.00;50.50;;;4.37;54.68;102631.56;12250112;19;19962;-85
2024/01/30 01:11:03;;;;;;;;;;;6.00;50.40;;;4.38;54.67;102635.91;12255072;19;19919;-85
2024/01/30 01:15:05;;;;;;;;;;;5.90;50.70;;;4.30;54.58;102627.25;12253426;19;19918;-85
2024/01/30 01:19:07;;;;;;;;;;;5.90;50.40;;;4.23;54.68;102610.00;12251485;19;19911;-84
2024/01/30 01:23:08;;;;;;;;;;;5.90;50.30;;;4.19;54.72;102611.72;12254364;19;19920;-85
2024/01/30 01:27:10;;;;;;;;;;;5.80;50.30;;;4.16;54.55;102603.97;12251742;19;19918;-84
2024/01/30 01:31:11;;;;;;;;;;;5.80;50.30;;;3.91;54.59;102574.59;12251765;19;19918;-85
2024/01/30 01:35:13;;;;;;;;;;;5.80;50.30;;;4.06;54.51;102606.53;12253789;19;20395;-85
2024/01/30 01:39:14;;;;;;;;;;;5.80;50.30;;;4.03;54.59;102597.06;12253215;19;19949;-85
2024/01/30 01:43:16;;;;;;;;;;;5.70;50.30;;;3.96;54.72;102591.00;12254202;19;19925;-84
2024/01/30 01:47:17;;;;;;;;;;;5.70;50.40;;;3.99;54.61;102603.06;12251661;19;19926;-85
2024/01/30 01:51:19;;;;;;;;;;;5.70;50.40;;;3.92;54.67;102585.84;12254871;19;19967;-85
2024/01/30 01:55:22;;;;;;;;;;;5.50;50.40;;;3.81;54.81;102574.56;12253619;19;19914;-85
2024/01/30 01:59:23;;;;;;;;;;;5.90;50.50;;;3.93;54.67;102603.91;12250823;19;19911;-84
2024/01/30 02:03:25;;;;;;;;;;;5.70;50.50;;;3.98;54.70;102609.97;12253668;19;19918;-85
2024/01/30 02:07:27;;;;;;;;;;;5.50;50.50;;;3.93;54.76;102603.06;12250996;19;19938;-85
2024/01/30 02:11:29;;;;;;;;;;;5.50;50.40;;;3.92;54.54;102597.03;12254199;19;20225;-85
2024/01/30 02:15:30;;;;;;;;;;;5.50;50.50;;;3.96;54.74;102603.91;12251684;19;19934;-84
2024/01/30 02:19:31;;;;;;;;;;;5.70;50.60;;;3.88;54.74;102584.09;12257184;19;19974;-85
2024/01/30 02:23:34;;;;;;;;;;;5.50;50.50;;;3.87;54.62;102587.53;12257400;19;19941;-85
2024/01/30 02:27:35;;;;;;;;;;;5.50;50.50;;;3.80;54.82;102581.47;12252522;19;19914;-85
2024/01/30 02:31:37;;;;;;;;;;;5.50;50.50;;;3.62;54.89;102555.56;12253768;19;19932;-84
2024/01/30 02:35:39;;;;;;;;;;;5.50;50.50;;;3.91;54.77;102602.19;12250318;19;19948;-84
2024/01/30 02:39:40;;;;;;;;;;;5.50;50.50;;;3.80;54.66;102575.44;12249605;19;19927;-84
2024/01/30 02:43:42;;;;;;;;;;;5.80;50.60;;;3.87;54.79;102593.56;12254994;19;19925;-85
2024/01/30 02:47:43;;;;;;;;;;;5.80;50.70;;;3.89;54.91;102591.84;12252386;19;19922;-85
2024/01/30 02:51:45;;;;;;;;;;;5.70;50.60;;;3.64;54.71;102554.72;12254173;19;19931;-84
2024/01/30 02:55:46;;;;;;;;;;;5.50;50.60;;;3.76;54.58;102584.94;12253312;19;19929;-84
2024/01/30 02:59:48;;;;;;;;;;;5.50;50.60;;;3.74;54.90;102576.28;12252501;19;20372;-84
2024/01/30 03:03:49;;;;;;;;;;;5.50;50.60;;;3.72;54.91;102572.84;12253859;19;19931;-84
2024/01/30 03:07:51;;;;;;;;;;;5.40;50.50;;;3.77;54.84;102581.47;12250607;19;19919;-84
2024/01/30 03:11:52;;;;;;;;;;;5.40;50.50;;;3.67;54.61;102566.78;12249792;19;19923;-84
2024/01/30 03:15:54;;;;;;;;;;;5.50;50.60;;;3.83;54.83;102584.06;12250942;19;19926;-84
2024/01/30 03:19:55;;;;;;;;;;;5.60;50.70;;;3.82;54.85;102590.09;12251637;19;19910;-84
2024/01/30 03:23:57;;;;;;;;;;;5.50;50.60;;;3.68;54.78;102555.63;12247388;19;20243;-84
2024/01/30 03:27:58;;;;;;;;;;;5.40;50.60;;;3.54;54.75;102538.34;12240941;19;20267;-84
2024/01/30 03:32:00;;;;;;;;;;;5.40;50.90;;;3.49;54.93;102531.44;12245710;19;19922;-85
2024/01/30 03:36:05;;;;;;;;;;;5.40;50.60;;;3.67;54.80;102559.03;12247939;19;19915;-84
2024/01/30 03:40:07;;;;;;;;;;;5.40;50.60;;;3.68;54.79;102553.88;12248192;19;20231;-84
2024/01/30 03:44:08;;;;;;;;;;;5.30;50.60;;;3.65;54.87;102558.19;12244900;19;19922;-84
2024/01/30 03:48:10;;;;;;;;;;;5.30;50.60;;;3.61;54.87;102557.31;12241123;19;19922;-84
2024/01/30 03:52:11;;;;;;;;;;;5.30;50.60;;;3.67;54.93;102569.38;12243326;19;19911;-85
2024/01/30 03:56:13;;;;;;;;;;;5.30;50.60;;;3.67;54.81;102554.75;12244056;19;19953;-84
2024/01/30 04:00:15;;;;;;;;;;;5.30;50.60;;;3.64;54.79;102561.63;12246047;19;19922;-84
2024/01/30 04:04:20;;;;;;;;;;;5.30;50.60;;;3.63;54.77;102563.34;12245148;19;20338;-84
2024/01/30 04:08:22;;;;;;;;;;;5.30;50.60;;;3.65;54.86;102571.13;12237002;19;20279;-84
2024/01/30 04:12:23;;;;;;;;;;;5.60;50.70;;;3.62;54.68;102568.50;12244433;19;20278;-84
2024/01/30 04:16:24;;;;;;;;;;;5.20;50.60;;;3.56;54.95;102571.91;12245574;19;19915;-84
2024/01/30 04:20:26;;;;;;;;;;;5.20;50.60;;;3.45;54.87;102551.22;12258835;19;19915;-84
2024/01/30 04:24:27;;;;;;;;;;;5.20;50.60;;;3.54;55.11;102576.25;12258027;19;19928;-84
2024/01/30 04:28:30;;;;;;;;;;;5.20;50.70;;;3.53;54.99;102577.94;12253923;19;19938;-84
2024/01/30 04:32:32;;;;;;;;;;;5.40;50.80;;;3.43;54.92;102563.28;12255604;19;19951;-84
2024/01/30 04:36:33;;;;;;;;;;;5.20;50.70;;;3.43;54.88;102565.88;12253119;19;20319;-84
2024/01/30 04:40:35;;;;;;;;;;;5.10;50.60;;;3.40;54.95;102555.50;12253719;19;19936;-83
2024/01/30 04:44:36;;;;;;;;;;;5.10;50.70;;;3.44;54.94;102552.09;12254179;19;19919;-84
2024/01/30 04:48:38;;;;;;;;;;;5.10;50.70;;;3.48;54.79;102569.34;12248463;19;19919;-83
2024/01/30 04:52:39;;;;;;;;;;;5.10;50.60;;;3.46;54.75;102571.03;12253905;19;19982;-84
2024/01/30 04:56:41;;;;;;;;;;;5.10;50.60;;;3.44;54.87;102562.41;12255380;19;20323;-84
2024/01/30 05:00:42;;;;;;;;;;;5.00;50.60;;;3.22;54.89;102540.81;12253843;19;19919;-84
2024/01/30 05:04:44;;;;;;;;;;;5.00;50.60;;;3.35;54.85;102558.91;12253326;19;19917;-83
2024/01/30 05:08:45;;;;;;;;;;;5.30;50.80;;;3.37;55.00;102560.66;12247843;19;19943;-84
2024/01/30 05:12:47;;;;;;;;;;;5.00;50.70;;;3.33;54.92;102553.75;12252031;19;19927;-83
2024/01/30 05:16:48;;;;;;;;;;;5.00;50.70;;;3.38;54.96;102559.81;12249825;19;19929;-83
2024/01/30 05:20:50;;;;;;;;;;;5.00;50.70;;;3.33;54.79;102559.78;12251238;19;19938;-84
2024/01/30 05:24:52;;;;;;;;;;;5.00;50.70;;;3.37;54.79;102560.66;12253869;19;19918;-83
2024/01/30 05:28:53;;;;;;;;;;;5.00;50.70;;;3.38;54.92;102556.38;12246257;19;20353;-84
2024/01/30 05:32:55;;;;;;;;;;;5.00;50.70;;;3.39;55.15;102558.94;12246447;19;19938;-84
2024/01/30 05:36:56;;;;;;;;;;;5.00;50.80;;;3.30;55.18;102538.25;12252022;19;19936;-84
2024/01/30 05:40:58;;;;;;;;;;;5.00;50.80;;;3.28;54.83;102540.81;12253618;19;19919;-84
2024/01/30 05:44:59;;;;;;;;;;;5.00;50.80;;;3.34;55.08;102547.72;12254749;19;19925;-84
2024/01/30 05:49:01;;;;;;;;;;;5.10;50.80;;;3.27;54.93;102539.09;12248856;19;20325;-84
2024/01/30 05:53:02;;;;;;;;;;;5.00;50.70;;;3.26;54.90;102545.09;12255073;19;19947;-84
2024/01/30 05:57:04;;;;;;;;;;;5.00;50.70;;;3.38;55.17;102566.72;12251697;19;19911;-84
2024/01/30 06:01:09;;;;;;;;;;;5.00;50.80;;;3.39;55.03;102552.94;12252806;19;19928;-84
2024/01/30 06:05:10;;;;;;;;;;;5.00;50.80;;;3.38;55.02;102564.13;12253701;19;19911;-84
2024/01/30 06:09:12;;;;;;;;;;;5.00;50.70;;;3.37;54.96;102555.50;12248414;19;19926;-84
2024/01/30 06:13:14;;;;;;;;;;;5.00;50.70;;;3.10;55.04;102518.34;12253479;19;19960;-84
2024/01/30 06:17:16;;;;;;;;;;;5.00;50.80;;;3.38;55.23;102561.53;12249355;19;19927;-84
2024/01/30 06:21:18;;;;;;;;;;;5.00;50.80;;;3.21;55.03;102528.72;12252369;19;20053;-83
2024/01/30 06:25:19;;;;;;;;;;;5.00;50.90;;;3.34;55.11;102545.16;12252276;19;19919;-85
2024/01/30 06:29:21;;;;;;;;;;;5.00;50.80;;;3.39;54.93;102556.38;12252086;19;19915;-84
2024/01/30 06:33:23;;;;;;;;;;;5.20;50.90;;;3.35;55.14;102551.16;12253922;19;20612;-84
2024/01/30 06:37:24;;;;;;;;;;;5.00;51.20;;;3.32;54.86;102541.69;12250423;19;19923;-84
2024/01/30 06:41:25;;;;;;;;;;;5.00;50.80;;;3.31;55.16;102556.31;12253313;19;19970;-85
2024/01/30 06:45:27;;;;;;;;;;;5.00;50.80;;;3.29;54.95;102546.84;12253591;19;20322;-84
2024/01/30 06:49:28;;;;;;;;;;;5.00;50.80;;;3.33;55.12;102564.09;12251798;19;19915;-84
2024/01/30 06:53:30;;;;;;;;;;;5.00;50.80;;;3.32;55.16;102562.34;12253349;19;19935;-84
2024/01/30 06:57:32;;;;;;;;;;;5.00;50.90;;;3.02;55.09;102509.72;12250969;19;19922;-86
2024/01/30 07:01:37;;;;;;;;;;;4.90;50.90;;;3.19;55.07;102527.03;12248452;19;21649;-85
2024/01/30 07:05:38;;;;;;;;;;;5.20;51.00;;;3.26;55.24;102536.50;12250804;19;20615;-85
2024/01/30 07:09:40;;;;;;;;;;;5.20;51.00;;;3.26;55.11;102547.69;12246121;19;19918;-84
2024/01/30 07:13:42;;;;;;;;;;;5.20;51.00;;;3.21;55.06;102544.22;12249252;19;20408;-85
2024/01/30 07:17:43;;;;;;;;;;;5.00;50.90;;;3.23;55.26;102536.50;12247723;19;19924;-84
2024/01/30 07:21:46;;;;;;;;;;;5.20;51.00;;;2.88;55.06;102477.84;12249378;19;19919;-86
2024/01/30 07:25:48;;;;;;;;;;;5.00;51.00;;;3.37;55.13;102554.63;12249743;19;19931;-85
2024/01/30 07:29:50;;;;;;;;;;;5.00;51.00;;;3.12;55.10;102502.03;12245985;19;19936;-85
2024/01/30 07:33:51;;;;;;;;;;;5.00;51.00;;;3.31;55.18;102547.72;12254180;19;20001;-86
2024/01/30 07:37:53;;;;;;;;;;;5.30;51.10;;;3.33;55.28;102539.13;12252480;19;19911;-85
2024/01/30 07:41:54;;;;;;;;;;;5.10;51.10;;;3.39;55.03;102540.00;12254428;19;19943;-86
2024/01/30 07:45:56;;;;;;;;;;;5.10;51.10;;;3.42;55.20;102552.94;12255381;19;19918;-86
2024/01/30 07:49:57;;;;;;;;;;;5.10;51.10;;;3.31;55.13;102529.66;12249239;19;19923;-85
2024/01/30 07:53:59;;;;;;;;;;;5.10;51.10;;;3.02;55.29;102481.34;12255001;19;19953;-85
2024/01/30 07:58:00;;;;;;;;;;;5.10;51.10;;;3.19;55.40;102503.81;12255667;19;19935;-85
2024/01/30 08:02:02;;;;;;;;;;;5.10;51.20;;;3.35;55.24;102528.81;12259735;19;20322;-86
2024/01/30 08:06:04;;;;;;;;;;;5.40;51.30;;;3.11;55.45;102472.78;12256841;19;19911;-85
2024/01/30 08:10:06;;;;;;;;;;;5.10;51.30;;;3.55;55.27;102540.06;12254119;19;19915;-85
2024/01/30 08:14:08;;;;;;;;;;;5.20;51.40;;;3.59;55.32;102529.75;12259197;19;19933;-85
2024/01/30 08:18:09;;;;;;;;;;;5.20;51.80;;;3.50;55.33;102495.28;12256397;19;19935;-86
2024/01/30 08:22:12;;;;;;;;;;;5.30;51.90;;;3.75;55.44;102516.88;12258784;19;20322;-86
2024/01/30 08:26:13;;;;;;;;;;;5.40;51.90;;;3.86;55.48;102524.66;12258711;19;19918;-85
2024/01/30 08:30:15;;;;;;;;;;;5.50;52.10;;;3.98;55.46;102527.25;12255103;19;19920;-85
2024/01/30 08:34:16;;;;;;;;;;;5.60;52.10;;;3.98;55.24;102509.16;12258579;19;19918;-85
2024/01/30 08:38:18;;;;;;;;;;;5.70;52.00;;;4.20;55.44;102535.03;12251104;19;20633;-86
2024/01/30 08:42:22;;;;;;;;;;;5.80;52.00;;;4.28;55.50;102528.13;12253714;19;20248;-85
2024/01/30 08:46:23;;;;;;;;;;;5.90;52.00;;;4.35;55.38;102510.91;12255683;19;19922;-85
2024/01/30 08:50:25;;;;;;;;;;;6.00;52.00;;;4.23;55.60;102478.13;12251254;19;19919;-84
2024/01/30 08:54:26;;;;;;;;;;;6.10;52.10;;;4.56;55.48;102507.41;12256878;19;19924;-85
2024/01/30 08:58:28;;;;;;;;;;;6.30;52.20;;;4.62;55.44;102489.31;12252162;19;19930;-84
2024/01/30 09:02:29;;;;;;;;;;;6.40;52.20;;;4.69;55.37;102467.72;12253851;19;19966;-84
2024/01/30 09:06:31;;;;;;;;;;;6.50;52.20;;;4.60;55.57;102447.06;12251185;19;19923;-84
2024/01/30 09:10:33;;;;;;;;;;;6.80;52.30;;;5.04;55.60;102500.41;12251886;19;19919;-84
2024/01/30 09:14:35;;;;;;;;;;;6.70;52.20;;;5.07;55.47;102475.34;12260764;19;20342;-85
2024/01/30 09:18:36;;;;;;;;;;;6.80;52.20;;;5.26;55.65;102496.84;12259604;19;19973;-84
2024/01/30 09:22:38;;;;;;;;;;;6.90;52.10;;;5.25;55.57;102487.38;12262171;19;19915;-84
2024/01/30 09:26:39;;;;;;;;;;;7.10;52.10;;;5.55;55.67;102514.84;12255510;19;19966;-84
2024/01/30 09:30:41;;;;;;;;;;;7.20;52.10;;;5.69;55.54;102516.50;12250583;19;19978;-84
2024/01/30 09:34:42;;;;;;;;;;;7.30;52.20;;;5.76;55.60;102498.31;12260193;19;19910;-85
2024/01/30 09:38:44;;;;;;;;;;;7.70;52.10;;;5.99;55.67;102497.31;12256324;19;19923;-84
2024/01/30 09:42:48;;;;;;;;;;;7.60;52.00;;;5.97;55.43;102486.13;12259515;19;19943;-85
2024/01/30 09:46:50;;;;;;;;;;;7.80;52.00;;;6.22;55.51;102485.91;12252123;19;19936;-85
2024/01/30 09:50:53;;;;;;;;;;;8.00;52.00;;;6.44;55.61;102505.59;12255708;19;19966;-84
2024/01/30 09:54:55;;;;;;;;;;;8.10;51.90;;;6.55;55.61;102505.50;12254246;19;19925;-85
2024/01/30 09:58:56;;;;;;;;;;;8.30;51.90;;;6.71;55.63;102501.84;12249691;19;19910;-85
2024/01/30 10:02:58;;;;;;;;;;;8.40;51.70;;;6.82;55.74;102483.56;12249459;19;19927;-85
2024/01/30 10:07:03;;;;;;;;;;;8.50;51.70;;;6.99;55.52;102491.16;12249155;19;19911;-84
2024/01/30 10:11:05;;;;;;;;;;;8.70;51.70;;;7.05;55.56;102470.34;12248912;19;19919;-85
2024/01/30 10:15:07;;;;;;;;;;;8.80;51.40;;;7.22;55.57;102485.69;12246787;19;19915;-85
2024/01/30 10:19:09;;;;;;;;;;;8.90;51.60;;;7.22;55.53;102467.50;12246504;19;19930;-86
2024/01/30 10:23:11;;;;;;;;;;;9.00;51.50;;;7.39;55.64;102483.72;12249535;19;20015;-85
2024/01/30 10:27:13;;;;;;;;;;;9.20;51.30;;;7.47;55.56;102474.06;12247038;19;19927;-85
2024/01/30 10:31:18;;;;;;;;;;;9.20;51.20;;;7.46;55.47;102456.78;12249408;19;19939;-85
2024/01/30 10:35:19;;;;;;;;;;;9.30;51.10;;;7.45;55.54;102429.06;12250324;19;19922;-85
2024/01/30 10:39:22;;;;;;;;;;;9.40;51.10;;;7.83;55.52;102468.34;12245492;19;20289;-85
2024/01/30 10:43:30;;;;;;;;;;;9.50;50.90;;;7.95;55.61;102457.78;12246694;19;19932;-86
2024/01/30 10:47:33;;;;;;;;;;;9.70;50.70;;;8.07;55.60;102459.31;12243000;19;19919;-85
2024/01/30 10:51:36;;;;;;;;;;;9.80;50.70;;;8.20;55.54;102463.41;12245509;19;19927;-85
2024/01/30 10:55:38;;;;;;;;;;;9.90;50.50;;;8.27;55.69;102462.44;12246012;19;19910;-85
2024/01/30 10:59:40;;;;;;;;;;;10.00;50.30;;;8.41;55.52;102459.59;12246087;19;19915;-85
2024/01/30 11:03:42;;;;;;;;;;;10.10;50.60;;;8.45;55.19;102444.78;12246979;19;19940;-85
2024/01/30 11:07:43;;;;;;;;;;;10.20;50.80;;;8.51;55.40;102444.69;12242805;19;19923;-85
2024/01/30 11:11:52;;;;;;;;;;;10.30;50.80;;;8.58;55.41;102434.09;12246508;19;20343;-86
2024/01/30 11:15:53;;;;;;;;;;;10.40;50.40;;;8.73;55.40;102432.97;12246183;19;19914;-86
2024/01/30 11:19:54;;;;;;;;;;;10.40;49.60;;;8.85;55.39;102434.44;12244329;19;19987;-86
2024/01/30 11:23:56;;;;;;;;;;;10.50;50.20;;;8.98;55.26;102445.47;12244491;19;19931;-85
2024/01/30 11:27:58;;;;;;;;;;;10.60;50.20;;;8.93;55.13;102424.72;12249500;19;19911;-85
2024/01/30 11:31:59;;;;;;;;;;;10.70;50.50;;;9.03;55.40;102426.25;12260724;19;19918;-85
2024/01/30 11:36:02;;;;;;;;;;;10.80;50.40;;;9.18;55.26;102435.50;12257202;19;19914;-85
2024/01/30 11:40:04;;;;;;;;;;;10.80;50.30;;;9.14;55.24;102413.00;12257524;19;19921;-85
2024/01/30 11:44:05;;;;;;;;;;;10.90;50.50;;;9.16;55.25;102412.97;12256156;19;19927;-85
2024/01/30 11:48:10;;;;;;;;;;;10.90;50.60;;;9.28;55.15;102425.72;12254358;19;19918;-85
2024/01/30 11:52:11;;;;;;;;;;;11.00;50.60;;;9.38;55.27;102424.63;12260095;19;19921;-86
2024/01/30 11:56:12;;;;;;;;;;;11.00;50.60;;;9.39;55.32;102418.50;12263515;19;19914;-86
2024/01/30 12:00:18;;;;;;;;;;;11.10;50.30;;;9.50;55.20;102420.88;12260900;19;19911;-85
2024/01/30 12:04:19;;;;;;;;;;;11.20;50.60;;;9.54;55.11;102414.69;12262448;19;19922;-85
2024/01/30 12:08:21;;;;;;;;;;;11.30;50.60;;;9.58;55.09;102424.16;12258880;19;19911;-86
2024/01/30 12:12:25;;;;;;;;;;;11.30;50.50;;;9.58;55.10;102408.50;12262644;19;19918;-86
2024/01/30 12:16:26;;;;;;;;;;;11.30;50.20;;;9.79;55.24;102427.16;12261691;19;19939;-85
2024/01/30 12:20:28;;;;;;;;;;;11.40;50.40;;;9.56;55.08;102376.41;12260616;19;19921;-86
2024/01/30 12:24:32;;;;;;;;;;;11.50;50.50;;;9.87;55.18;102417.38;12258724;19;19919;-85
2024/01/30 12:28:33;;;;;;;;;;;11.60;50.70;;;9.71;55.20;102365.56;12251932;19;19919;-86
2024/01/30 12:32:36;;;;;;;;;;;11.60;50.80;;;10.00;55.23;102403.13;12255044;19;19941;-85
2024/01/30 12:36:37;;;;;;;;;;;11.70;50.30;;;9.93;55.11;102378.06;12257404;19;19926;-85
2024/01/30 12:40:39;;;;;;;;;;;11.70;50.30;;;10.13;55.25;102393.22;12256283;19;19930;-86
2024/01/30 12:44:41;;;;;;;;;;;11.80;50.60;;;10.17;55.11;102394.84;12259404;19;19919;-85
2024/01/30 12:48:43;;;;;;;;;;;11.80;50.70;;;10.15;55.06;102374.03;12253641;19;19926;-85
2024/01/30 12:52:44;;;;;;;;;;;11.90;50.40;;;10.22;55.02;102364.25;12259181;19;19911;-85
2024/01/30 12:56:46;;;;;;;;;;;11.90;49.60;;;10.27;54.90;102362.41;12256690;19;19915;-86
2024/01/30 13:00:47;;;;;;;;;;;11.90;50.40;;;10.38;55.01;102364.72;12257817;19;19928;-86
2024/01/30 13:04:49;;;;;;;;;;;12.00;50.50;;;10.45;55.03;102366.28;12259523;19;19923;-84
2024/01/30 13:08:51;;;;;;;;;;;12.00;50.40;;;10.38;54.93;102346.44;12255097;19;20334;-85
2024/01/30 13:12:53;;;;;;;;;;;12.10;50.50;;;10.53;54.95;102360.81;12256586;19;19919;-86
2024/01/30 13:16:54;;;;;;;;;;;12.20;50.30;;;10.54;54.91;102342.50;12253040;19;19957;-85
2024/01/30 13:20:56;;;;;;;;;;;12.20;50.30;;;10.61;54.84;102354.47;12256570;19;19911;-86
2024/01/30 13:24:58;;;;;;;;;;;12.20;50.60;;;10.58;54.99;102338.88;12255094;19;20321;-86
2024/01/30 13:29:00;;;;;;;;;;;12.30;50.40;;;10.70;54.93;102358.56;12252310;19;20429;-86
2024/01/30 13:33:02;;;;;;;;;;;12.30;50.50;;;10.63;54.98;102336.13;12254955;19;19919;-85
2024/01/30 13:37:04;;;;;;;;;;;12.40;50.60;;;10.77;54.84;102348.78;12254704;19;19915;-85
2024/01/30 13:41:06;;;;;;;;;;;12.40;50.70;;;10.83;55.00;102349.47;12254936;19;20384;-86
2024/01/30 13:45:09;;;;;;;;;;;12.40;50.60;;;10.77;54.92;102326.13;12254454;19;19918;-86
2024/01/30 13:49:11;;;;;;;;;;;12.50;50.60;;;10.86;54.78;102325.00;12252881;19;19922;-86
2024/01/30 13:53:12;;;;;;;;;;;12.50;50.50;;;10.95;54.80;102324.72;12252652;19;20326;-86
2024/01/30 13:57:14;;;;;;;;;;;12.60;50.10;;;10.97;54.91;102322.91;12254296;19;19927;-86
2024/01/30 14:01:16;;;;;;;;;;;12.60;50.40;;;10.94;54.71;102307.31;12254729;19;19914;-86
2024/01/30 14:05:18;;;;;;;;;;;12.60;50.60;;;11.01;54.85;102313.19;12253232;19;19915;-86
2024/01/30 14:09:21;;;;;;;;;;;12.70;50.60;;;11.10;54.95;102327.72;12249922;19;19919;-86
2024/01/30 14:13:22;;;;;;;;;;;12.70;50.60;;;11.08;54.79;102328.66;12255220;19;20269;-86
2024/01/30 14:17:24;;;;;;;;;;;12.70;50.50;;;10.64;54.74;102256.88;12252205;19;19931;-85
2024/01/30 14:21:25;;;;;;;;;;;12.70;50.10;;;11.04;54.76;102321.81;12250876;19;19931;-85
2024/01/30 14:25:27;;;;;;;;;;;12.70;50.40;;;11.13;54.90;102338.13;12251634;19;19911;-86
2024/01/30 14:29:28;;;;;;;;;;;12.70;50.50;;;11.07;54.75;102320.84;12248657;19;19987;-85
2024/01/30 14:33:30;;;;;;;;;;;12.70;50.20;;;11.20;54.86;102342.25;12252077;19;19911;-85
2024/01/30 14:37:31;;;;;;;;;;;12.70;50.40;;;11.14;54.77;102332.81;12249598;19;19930;-85
2024/01/30 14:41:33;;;;;;;;;;;12.80;50.50;;;11.13;54.74;102330.28;12250280;19;19999;-85
2024/01/30 14:45:34;;;;;;;;;;;12.70;50.30;;;11.18;54.60;102328.34;12249006;19;19930;-85
2024/01/30 14:49:36;;;;;;;;;;;12.70;50.50;;;11.15;54.61;102338.91;12249096;19;19926;-85
2024/01/30 14:53:37;;;;;;;;;;;12.70;50.40;;;11.13;54.83;102331.13;12250506;19;19922;-85
2024/01/30 14:57:42;;;;;;;;;;;12.70;50.00;;;11.13;54.83;102332.91;12246942;19;19926;-85
2024/01/30 15:01:45;;;;;;;;;;;12.70;50.30;;;10.91;54.61;102285.63;12250937;19;20307;-86
2024/01/30 15:05:46;;;;;;;;;;;12.70;50.80;;;11.18;54.59;102338.81;12251662;19;19918;-85
2024/01/30 15:09:47;;;;;;;;;;;12.60;50.50;;;11.05;54.57;102307.84;12251797;19;19983;-85
2024/01/30 15:13:49;;;;;;;;;;;12.70;50.50;;;11.11;54.65;102317.25;12250210;19;20259;-85
2024/01/30 15:17:50;;;;;;;;;;;12.60;50.50;;;11.14;54.63;102332.81;12249677;19;20242;-86
2024/01/30 15:21:52;;;;;;;;;;;12.60;50.50;;;11.00;54.55;102316.72;12247800;19;19925;-85
2024/01/30 15:25:53;;;;;;;;;;;12.60;50.50;;;11.08;54.61;102331.28;12245066;19;19991;-85
2024/01/30 15:29:55;;;;;;;;;;;12.60;50.60;;;10.99;54.54;102321.13;12242527;19;19918;-85
2024/01/30 15:33:57;;;;;;;;;;;12.60;50.60;;;11.13;54.56;102345.97;12246914;19;19926;-85
2024/01/30 15:37:59;;;;;;;;;;;12.60;50.60;;;11.04;54.53;102347.09;12244296;19;19914;-85
2024/01/30 15:42:01;;;;;;;;;;;12.60;50.60;;;11.10;54.57;102359.09;12244748;19;20011;-85
2024/01/30 15:46:02;;;;;;;;;;;12.60;50.50;;;11.05;54.33;102347.06;12244805;19;19923;-85
2024/01/30 15:50:04;;;;;;;;;;;12.60;50.50;;;10.92;54.26;102337.88;12242991;19;19911;-85
2024/01/30 15:54:06;;;;;;;;;;;12.50;50.50;;;10.99;54.38;102352.47;12246201;19;19941;-85
2024/01/30 15:58:07;;;;;;;;;;;12.50;50.60;;;10.94;54.30;102359.59;12243009;19;20357;-85
2024/01/30 16:02:09;;;;;;;;;;;12.40;50.50;;;10.90;54.35;102355.34;12244308;19;19915;-85
2024/01/30 16:06:12;;;;;;;;;;;12.40;50.90;;;10.80;54.51;102354.78;12242803;19;19930;-85
2024/01/30 16:10:16;;;;;;;;;;;12.30;50.40;;;10.56;54.30;102327.63;12240643;19;19915;-85
2024/01/30 16:14:17;;;;;;;;;;;12.20;50.40;;;10.66;54.22;102362.16;12247692;19;19915;-85
2024/01/30 16:18:19;;;;;;;;;;;12.10;50.40;;;10.56;54.19;102347.69;12255879;19;19923;-85
2024/01/30 16:22:20;;;;;;;;;;;12.00;50.40;;;10.52;54.06;102359.09;12257208;19;19932;-85
2024/01/30 16:26:22;;;;;;;;;;;11.90;50.40;;;10.43;54.21;102357.63;12256578;19;19930;-85
2024/01/30 16:30:23;;;;;;;;;;;11.90;50.50;;;10.29;54.23;102336.25;12253121;19;19921;-85
2024/01/30 16:34:24;;;;;;;;;;;11.80;50.40;;;10.06;54.22;102311.59;12260605;19;19921;-86
2024/01/30 16:38:26;;;;;;;;;;;11.70;50.40;;;9.80;54.16;102293.19;12254085;19;19939;-86
2024/01/30 16:42:28;;;;;;;;;;;11.60;50.50;;;10.12;54.22;102355.81;12254445;19;19914;-85
2024/01/30 16:46:30;;;;;;;;;;;11.50;50.50;;;9.99;54.02;102344.00;12255466;19;19943;-85
2024/01/30 16:50:31;;;;;;;;;;;11.50;50.50;;;9.99;54.12;102362.28;12252164;19;19911;-85
2024/01/30 16:54:33;;;;;;;;;;;11.40;50.60;;;9.95;54.21;102364.09;12253844;19;19955;-85
2024/01/30 16:58:35;;;;;;;;;;;11.30;50.60;;;9.65;54.16;102324.00;12250970;19;19979;-85
2024/01/30 17:02:37;;;;;;;;;;;11.30;50.60;;;9.71;54.07;102341.25;12254785;19;20360;-85
2024/01/30 17:06:38;;;;;;;;;;;11.20;50.60;;;9.62;54.00;102347.56;12252963;19;19974;-85
2024/01/30 17:10:40;;;;;;;;;;;11.10;50.60;;;9.67;54.02;102377.00;12253102;19;19918;-85
2024/01/30 17:14:41;;;;;;;;;;;11.00;50.60;;;9.41;54.24;102335.03;12255047;19;19951;-85
2024/01/30 17:18:43;;;;;;;;;;;11.00;50.80;;;9.62;54.12;102367.56;12253128;19;19918;-85
2024/01/30 17:22:44;;;;;;;;;;;10.90;50.80;;;9.55;53.99;102366.84;12254389;19;19926;-86
2024/01/30 17:26:45;;;;;;;;;;;10.90;50.80;;;9.56;54.07;102381.63;12254161;19;19926;-85
2024/01/30 17:30:47;;;;;;;;;;;11.00;50.80;;;9.28;54.30;102340.53;12250778;19;19923;-85
2024/01/30 17:34:49;;;;;;;;;;;10.80;50.80;;;9.41;54.01;102367.19;12247770;19;19917;-85
2024/01/30 17:38:51;;;;;;;;;;;10.80;50.70;;;9.28;53.96;102350.13;12250030;19;19922;-85
2024/01/30 17:42:52;;;;;;;;;;;10.70;50.70;;;9.24;53.98;102358.91;12249072;19;19922;-85
2024/01/30 17:46:55;;;;;;;;;;;10.70;50.80;;;9.22;53.95;102371.13;12249030;19;19918;-86
2024/01/30 17:50:57;;;;;;;;;;;10.60;50.70;;;9.13;54.12;102366.97;12247470;19;19947;-86
2024/01/30 17:54:58;;;;;;;;;;;10.70;50.90;;;9.00;54.02;102358.56;12248148;19;19982;-85
2024/01/30 17:59:00;;;;;;;;;;;10.50;50.80;;;9.03;54.13;102361.09;12247533;19;20235;-85
2024/01/30 18:03:03;;;;;;;;;;;10.50;50.90;;;8.98;54.10;102372.53;12251186;19;19919;-86
2024/01/30 18:07:05;;;;;;;;;;;10.40;50.90;;;8.97;54.25;102378.63;12247535;19;20263;-86
2024/01/30 18:11:06;;;;;;;;;;;10.40;51.00;;;9.00;54.13;102392.44;12250584;19;19927;-85
2024/01/30 18:15:08;;;;;;;;;;;10.40;51.00;;;8.88;54.15;102371.84;12253513;19;19918;-86
2024/01/30 18:19:10;;;;;;;;;;;10.40;51.10;;;9.08;54.33;102400.97;12247370;19;19924;-86
2024/01/30 18:23:11;;;;;;;;;;;10.40;51.10;;;8.78;54.32;102344.31;12241582;19;19918;-86